sensor_id;sensor_type;location;lat;lon;timestamp;pressure;altitude;pressure_sealevel;temperature;humidity
75553;BME280;64136;53.118;17.996;2023-02-24T00:01:36;100073.39;;;5.77;85.54
75553;BME280;64136;53.118;17.996;2023-02-24T00:04:07;100070.45;;;5.77;85.56
75553;BME280;64136;53.118;17.996;2023-02-24T00:06:37;100066.81;;;5.82;85.28
75553;BME280;64136;53.118;17.996;2023-02-24T00:09:08;100060.89;;;5.84;85.10
75553;BME280;64136;53.118;17.996;2023-02-24T00:11:37;100055.02;;;5.79;85.43
75553;BME280;64136;53.118;17.996;2023-02-24T00:14:10;100060.08;;;5.80;85.13
75553;BME280;64136;53.118;17.996;2023-02-24T00:16:37;100056.59;;;5.86;84.63
75553;BME280;64136;53.118;17.996;2023-02-24T00:19:04;100057.49;;;5.90;84.63
75553;BME280;64136;53.118;17.996;2023-02-24T00:21:34;100057.14;;;5.90;84.46
75553;BME280;64136;53.118;17.996;2023-02-24T00:24:01;100055.59;;;5.89;84.57
75553;BME280;64136;53.118;17.996;2023-02-24T00:26:28;100058.56;;;5.93;84.27
75553;BME280;64136;53.118;17.996;2023-02-24T00:28:56;100055.41;;;5.96;84.34
75553;BME280;64136;53.118;17.996;2023-02-24T00:31:26;100051.54;;;5.96;84.43
75553;BME280;64136;53.118;17.996;2023-02-24T00:33:57;100045.27;;;5.95;84.29
75553;BME280;64136;53.118;17.996;2023-02-24T00:36:29;100042.52;;;5.94;84.63
75553;BME280;64136;53.118;17.996;2023-02-24T00:39:01;100039.63;;;5.95;84.54
75553;BME280;64136;53.118;17.996;2023-02-24T00:41:30;100030.45;;;5.96;84.31
75553;BME280;64136;53.118;17.996;2023-02-24T00:43:59;100032.33;;;5.94;84.61
75553;BME280;64136;53.118;17.996;2023-02-24T00:46:35;100033.13;;;5.92;84.66
75553;BME280;64136;53.118;17.996;2023-02-24T00:49:04;100031.64;;;5.94;84.68
75553;BME280;64136;53.118;17.996;2023-02-24T00:51:40;100029.33;;;5.97;84.63
75553;BME280;64136;53.118;17.996;2023-02-24T00:54:08;100026.73;;;5.93;84.76
75553;BME280;64136;53.118;17.996;2023-02-24T00:56:35;100024.80;;;5.90;85.26
75553;BME280;64136;53.118;17.996;2023-02-24T00:59:02;100022.88;;;5.93;84.95
75553;BME280;64136;53.118;17.996;2023-02-24T01:01:31;100022.96;;;5.92;84.96
75553;BME280;64136;53.118;17.996;2023-02-24T01:04:01;100023.66;;;5.92;84.99
75553;BME280;64136;53.118;17.996;2023-02-24T01:06:39;100019.48;;;5.91;84.83
75553;BME280;64136;53.118;17.996;2023-02-24T01:11:37;100016.45;;;5.91;84.71
75553;BME280;64136;53.118;17.996;2023-02-24T01:14:26;100016.05;;;5.89;84.95
75553;BME280;64136;53.118;17.996;2023-02-24T01:16:54;100012.40;;;5.87;85.01
75553;BME280;64136;53.118;17.996;2023-02-24T01:19:27;100013.41;;;5.89;84.94
75553;BME280;64136;53.118;17.996;2023-02-24T01:22:02;100011.41;;;5.90;84.96
75553;BME280;64136;53.118;17.996;2023-02-24T01:24:34;100011.70;;;5.87;84.93
75553;BME280;64136;53.118;17.996;2023-02-24T01:27:01;100004.30;;;5.88;84.77
75553;BME280;64136;53.118;17.996;2023-02-24T01:29:32;100004.38;;;5.86;84.76
75553;BME280;64136;53.118;17.996;2023-02-24T01:32:02;99999.68;;;5.85;84.76
75553;BME280;64136;53.118;17.996;2023-02-24T01:34:29;99997.45;;;5.81;84.90
75553;BME280;64136;53.118;17.996;2023-02-24T01:36:57;99994.27;;;5.81;85.00
75553;BME280;64136;53.118;17.996;2023-02-24T01:39:23;99989.59;;;5.87;84.75
75553;BME280;64136;53.118;17.996;2023-02-24T01:41:51;99984.58;;;5.85;84.88
75553;BME280;64136;53.118;17.996;2023-02-24T01:47:25;99978.54;;;5.90;84.47
75553;BME280;64136;53.118;17.996;2023-02-24T01:49:55;99978.93;;;5.90;84.48
75553;BME280;64136;53.118;17.996;2023-02-24T01:52:26;99975.15;;;5.88;84.53
75553;BME280;64136;53.118;17.996;2023-02-24T01:55:08;99972.90;;;5.83;84.89
75553;BME280;64136;53.118;17.996;2023-02-24T01:57:39;99965.92;;;5.86;84.86
75553;BME280;64136;53.118;17.996;2023-02-24T02:00:08;99964.37;;;5.82;85.09
75553;BME280;64136;53.118;17.996;2023-02-24T02:02:42;99957.58;;;5.81;85.09
75553;BME280;64136;53.118;17.996;2023-02-24T02:05:11;99957.88;;;5.79;85.27
75553;BME280;64136;53.118;17.996;2023-02-24T02:07:39;99955.61;;;5.81;85.22
75553;BME280;64136;53.118;17.996;2023-02-24T02:10:08;99954.91;;;5.81;85.46
75553;BME280;64136;53.118;17.996;2023-02-24T02:12:35;99950.98;;;5.82;85.04
75553;BME280;64136;53.118;17.996;2023-02-24T02:15:03;99948.36;;;5.79;85.27
75553;BME280;64136;53.118;17.996;2023-02-24T02:20:34;99944.16;;;5.76;85.48
75553;BME280;64136;53.118;17.996;2023-02-24T02:23:25;99943.13;;;5.75;85.52
75553;BME280;64136;53.118;17.996;2023-02-24T02:26:21;99938.67;;;5.73;85.52
75553;BME280;64136;53.118;17.996;2023-02-24T02:43:02;99933.48;;;5.78;84.97
75553;BME280;64136;53.118;17.996;2023-02-24T02:48:20;99927.80;;;5.82;84.83
75553;BME280;64136;53.118;17.996;2023-02-24T02:50:59;99927.64;;;5.79;84.94
75553;BME280;64136;53.118;17.996;2023-02-24T02:53:42;99929.45;;;5.81;84.81
75553;BME280;64136;53.118;17.996;2023-02-24T02:56:16;99925.23;;;5.84;84.70
75553;BME280;64136;53.118;17.996;2023-02-24T02:58:49;99919.55;;;5.85;84.56
75553;BME280;64136;53.118;17.996;2023-02-24T03:01:23;99921.55;;;5.81;84.68
75553;BME280;64136;53.118;17.996;2023-02-24T03:03:53;99918.53;;;5.84;84.54
75553;BME280;64136;53.118;17.996;2023-02-24T03:06:25;99911.46;;;5.82;84.81
75553;BME280;64136;53.118;17.996;2023-02-24T03:08:59;99906.98;;;5.78;84.92
75553;BME280;64136;53.118;17.996;2023-02-24T03:11:47;99909.77;;;5.75;85.20
75553;BME280;64136;53.118;17.996;2023-02-24T03:14:16;99908.87;;;5.75;85.02
75553;BME280;64136;53.118;17.996;2023-02-24T03:16:46;99904.90;;;5.74;85.11
75553;BME280;64136;53.118;17.996;2023-02-24T03:20:04;99899.14;;;5.76;84.89
75553;BME280;64136;53.118;17.996;2023-02-24T03:22:42;99895.65;;;5.73;85.09
75553;BME280;64136;53.118;17.996;2023-02-24T03:25:11;99894.27;;;5.76;84.89
75553;BME280;64136;53.118;17.996;2023-02-24T03:27:46;99892.29;;;5.76;84.71
75553;BME280;64136;53.118;17.996;2023-02-24T03:30:19;99890.10;;;5.75;84.82
75553;BME280;64136;53.118;17.996;2023-02-24T03:32:51;99888.18;;;5.71;84.95
75553;BME280;64136;53.118;17.996;2023-02-24T03:35:27;99889.78;;;5.74;84.72
75553;BME280;64136;53.118;17.996;2023-02-24T03:37:55;99888.41;;;5.76;84.57
75553;BME280;64136;53.118;17.996;2023-02-24T03:40:23;99884.49;;;5.77;84.58
75553;BME280;64136;53.118;17.996;2023-02-24T03:45:37;99877.38;;;5.70;84.78
75553;BME280;64136;53.118;17.996;2023-02-24T03:48:05;99878.17;;;5.68;84.67
75553;BME280;64136;53.118;17.996;2023-02-24T03:50:33;99876.23;;;5.69;84.76
75553;BME280;64136;53.118;17.996;2023-02-24T03:59:19;99866.57;;;5.65;84.63
75553;BME280;64136;53.118;17.996;2023-02-24T04:01:53;99862.19;;;5.68;84.42
75553;BME280;64136;53.118;17.996;2023-02-24T04:04:36;99863.83;;;5.67;84.47
75553;BME280;64136;53.118;17.996;2023-02-24T04:07:14;99859.67;;;5.63;84.64
75553;BME280;64136;53.118;17.996;2023-02-24T04:09:50;99857.17;;;5.61;84.80
75553;BME280;64136;53.118;17.996;2023-02-24T04:12:29;99852.58;;;5.61;84.71
75553;BME280;64136;53.118;17.996;2023-02-24T04:15:21;99847.86;;;5.58;84.69
75553;BME280;64136;53.118;17.996;2023-02-24T04:17:54;99847.39;;;5.53;84.79
75553;BME280;64136;53.118;17.996;2023-02-24T04:20:26;99847.42;;;5.53;84.82
75553;BME280;64136;53.118;17.996;2023-02-24T04:23:13;99845.41;;;5.54;84.70
75553;BME280;64136;53.118;17.996;2023-02-24T04:25:43;99836.75;;;5.52;84.77
75553;BME280;64136;53.118;17.996;2023-02-24T04:28:11;99837.89;;;5.51;84.69
75553;BME280;64136;53.118;17.996;2023-02-24T04:30:45;99837.50;;;5.51;84.63
75553;BME280;64136;53.118;17.996;2023-02-24T04:33:13;99834.58;;;5.53;84.51
75553;BME280;64136;53.118;17.996;2023-02-24T04:35:43;99834.10;;;5.52;84.58
75553;BME280;64136;53.118;17.996;2023-02-24T04:38:10;99834.48;;;5.52;84.43
75553;BME280;64136;53.118;17.996;2023-02-24T04:40:37;99829.06;;;5.48;84.69
75553;BME280;64136;53.118;17.996;2023-02-24T04:43:05;99826.08;;;5.51;84.56
75553;BME280;64136;53.118;17.996;2023-02-24T04:45:33;99821.77;;;5.53;84.41
75553;BME280;64136;53.118;17.996;2023-02-24T04:48:01;99822.29;;;5.53;84.36
75553;BME280;64136;53.118;17.996;2023-02-24T04:50:31;99817.80;;;5.49;84.58
75553;BME280;64136;53.118;17.996;2023-02-24T04:53:00;99819.61;;;5.48;84.62
75553;BME280;64136;53.118;17.996;2023-02-24T04:55:29;99810.91;;;5.49;84.56
75553;BME280;64136;53.118;17.996;2023-02-24T04:57:59;99813.93;;;5.49;84.48
75553;BME280;64136;53.118;17.996;2023-02-24T05:00:27;99810.29;;;5.48;84.44
75553;BME280;64136;53.118;17.996;2023-02-24T05:03:04;99805.71;;;5.48;84.41
75553;BME280;64136;53.118;17.996;2023-02-24T05:05:31;99797.84;;;5.47;84.44
75553;BME280;64136;53.118;17.996;2023-02-24T05:08:08;99795.38;;;5.48;84.35
75553;BME280;64136;53.118;17.996;2023-02-24T05:10:42;99793.38;;;5.49;84.41
75553;BME280;64136;53.118;17.996;2023-02-24T05:13:13;99793.83;;;5.47;84.47
75553;BME280;64136;53.118;17.996;2023-02-24T05:15:41;99789.52;;;5.46;84.66
75553;BME280;64136;53.118;17.996;2023-02-24T05:18:08;99788.70;;;5.48;84.68
75553;BME280;64136;53.118;17.996;2023-02-24T05:20:40;99783.95;;;5.45;84.78
75553;BME280;64136;53.118;17.996;2023-02-24T05:23:11;99782.77;;;5.40;84.89
75553;BME280;64136;53.118;17.996;2023-02-24T05:25:37;99781.04;;;5.37;85.23
75553;BME280;64136;53.118;17.996;2023-02-24T05:28:04;99777.40;;;5.39;85.16
75553;BME280;64136;53.118;17.996;2023-02-24T05:30:31;99773.93;;;5.42;84.82
75553;BME280;64136;53.118;17.996;2023-02-24T05:33:00;99775.20;;;5.41;84.84
75553;BME280;64136;53.118;17.996;2023-02-24T05:35:27;99776.35;;;5.39;85.19
75553;BME280;64136;53.118;17.996;2023-02-24T05:37:53;99771.93;;;5.37;85.38
75553;BME280;64136;53.118;17.996;2023-02-24T05:40:20;99771.59;;;5.40;85.16
75553;BME280;64136;53.118;17.996;2023-02-24T05:42:49;99770.36;;;5.40;85.36
75553;BME280;64136;53.118;17.996;2023-02-24T05:45:16;99768.32;;;5.35;85.54
75553;BME280;64136;53.118;17.996;2023-02-24T05:47:43;99768.91;;;5.31;85.89
75553;BME280;64136;53.118;17.996;2023-02-24T05:50:12;99767.46;;;5.32;86.08
75553;BME280;64136;53.118;17.996;2023-02-24T05:52:39;99769.73;;;5.32;86.08
75553;BME280;64136;53.118;17.996;2023-02-24T05:55:06;99768.67;;;5.30;86.21
75553;BME280;64136;53.118;17.996;2023-02-24T05:57:38;99769.23;;;5.26;86.50
75553;BME280;64136;53.118;17.996;2023-02-24T06:00:07;99768.49;;;5.27;86.45
75553;BME280;64136;53.118;17.996;2023-02-24T06:02:39;99764.72;;;5.28;86.58
75553;BME280;64136;53.118;17.996;2023-02-24T06:05:09;99764.89;;;5.28;86.69
75553;BME280;64136;53.118;17.996;2023-02-24T06:07:46;99763.89;;;5.27;86.57
75553;BME280;64136;53.118;17.996;2023-02-24T06:10:13;99764.28;;;5.27;86.64
75553;BME280;64136;53.118;17.996;2023-02-24T06:12:40;99762.95;;;5.26;86.80
75553;BME280;64136;53.118;17.996;2023-02-24T06:15:07;99764.94;;;5.30;86.70
75553;BME280;64136;53.118;17.996;2023-02-24T06:17:33;99763.50;;;5.34;86.58
75553;BME280;64136;53.118;17.996;2023-02-24T06:19:59;99768.08;;;5.37;86.59
75553;BME280;64136;53.118;17.996;2023-02-24T06:22:26;99762.65;;;5.30;86.24
75553;BME280;64136;53.118;17.996;2023-02-24T06:24:54;99767.27;;;5.29;85.45
75553;BME280;64136;53.118;17.996;2023-02-24T06:27:22;99761.42;;;5.24;84.61
75553;BME280;64136;53.118;17.996;2023-02-24T06:29:50;99765.10;;;5.17;84.68
75553;BME280;64136;53.118;17.996;2023-02-24T06:32:19;99763.92;;;5.11;84.16
75553;BME280;64136;53.118;17.996;2023-02-24T06:34:46;99766.22;;;5.13;84.00
75553;BME280;64136;53.118;17.996;2023-02-24T06:37:14;99761.90;;;5.09;83.62
75553;BME280;64136;53.118;17.996;2023-02-24T06:39:40;99765.66;;;5.02;83.77
75553;BME280;64136;53.118;17.996;2023-02-24T06:42:08;99764.41;;;5.02;83.89
75553;BME280;64136;53.118;17.996;2023-02-24T06:44:38;99765.15;;;5.04;83.80
75553;BME280;64136;53.118;17.996;2023-02-24T06:47:07;99759.17;;;5.05;83.84
75553;BME280;64136;53.118;17.996;2023-02-24T06:49:33;99752.77;;;5.03;83.88
75553;BME280;64136;53.118;17.996;2023-02-24T06:52:00;99752.27;;;4.96;83.55
75553;BME280;64136;53.118;17.996;2023-02-24T06:54:27;99748.41;;;4.93;83.88
75553;BME280;64136;53.118;17.996;2023-02-24T06:56:59;99744.89;;;4.96;83.94
75553;BME280;64136;53.118;17.996;2023-02-24T06:59:25;99746.23;;;4.98;83.96
75553;BME280;64136;53.118;17.996;2023-02-24T07:01:55;99747.42;;;4.98;83.80
75553;BME280;64136;53.118;17.996;2023-02-24T07:04:24;99746.44;;;5.00;83.78
75553;BME280;64136;53.118;17.996;2023-02-24T07:06:55;99742.63;;;4.96;83.76
75553;BME280;64136;53.118;17.996;2023-02-24T07:09:24;99745.31;;;4.92;84.17
75553;BME280;64136;53.118;17.996;2023-02-24T07:12:01;99744.30;;;4.94;84.28
75553;BME280;64136;53.118;17.996;2023-02-24T07:14:31;99742.35;;;4.98;84.14
75553;BME280;64136;53.118;17.996;2023-02-24T07:17:00;99745.24;;;4.99;84.11
75553;BME280;64136;53.118;17.996;2023-02-24T07:19:30;99750.88;;;4.96;83.97
75553;BME280;64136;53.118;17.996;2023-02-24T07:24:50;99750.77;;;4.79;82.65
75553;BME280;64136;53.118;17.996;2023-02-24T07:27:25;99757.21;;;4.77;82.43
75553;BME280;64136;53.118;17.996;2023-02-24T07:30:22;99752.92;;;4.59;81.66
75553;BME280;64136;53.118;17.996;2023-02-24T07:34:29;99753.38;;;4.44;81.08
75553;BME280;64136;53.118;17.996;2023-02-24T07:37:23;99752.72;;;4.29;81.32
75553;BME280;64136;53.118;17.996;2023-02-24T07:43:00;99743.77;;;4.23;80.58
75553;BME280;64136;53.118;17.996;2023-02-24T07:45:27;99750.08;;;4.13;80.00
75553;BME280;64136;53.118;17.996;2023-02-24T07:47:55;99743.42;;;4.10;79.76
75553;BME280;64136;53.118;17.996;2023-02-24T07:50:29;99742.79;;;4.01;79.46
75553;BME280;64136;53.118;17.996;2023-02-24T07:54:05;99737.63;;;3.93;78.98
75553;BME280;64136;53.118;17.996;2023-02-24T07:56:46;99744.83;;;3.86;78.87
75553;BME280;64136;53.118;17.996;2023-02-24T07:59:26;99743.22;;;3.83;78.72
75553;BME280;64136;53.118;17.996;2023-02-24T08:01:59;99741.09;;;3.90;78.54
75553;BME280;64136;53.118;17.996;2023-02-24T08:04:30;99739.87;;;3.97;76.92
75553;BME280;64136;53.118;17.996;2023-02-24T08:06:57;99745.30;;;4.00;76.52
75553;BME280;64136;53.118;17.996;2023-02-24T08:09:31;99737.58;;;3.94;75.26
75553;BME280;64136;53.118;17.996;2023-02-24T08:12:02;99739.03;;;3.89;74.52
75553;BME280;64136;53.118;17.996;2023-02-24T08:14:29;99724.92;;;3.74;73.89
75553;BME280;64136;53.118;17.996;2023-02-24T08:17:11;99726.66;;;3.71;74.31
75553;BME280;64136;53.118;17.996;2023-02-24T08:19:37;99723.83;;;3.71;74.30
75553;BME280;64136;53.118;17.996;2023-02-24T08:22:06;99719.06;;;3.58;74.53
75553;BME280;64136;53.118;17.996;2023-02-24T08:24:55;99718.81;;;3.71;74.88
75553;BME280;64136;53.118;17.996;2023-02-24T08:27:27;99715.06;;;3.75;74.80
75553;BME280;64136;53.118;17.996;2023-02-24T08:29:55;99711.70;;;3.86;74.61
75553;BME280;64136;53.118;17.996;2023-02-24T08:32:31;99709.15;;;3.88;73.86
75553;BME280;64136;53.118;17.996;2023-02-24T08:35:03;99705.23;;;4.03;74.03
75553;BME280;64136;53.118;17.996;2023-02-24T08:37:32;99703.56;;;4.11;73.37
75553;BME280;64136;53.118;17.996;2023-02-24T08:40:09;99704.34;;;4.20;73.76
75553;BME280;64136;53.118;17.996;2023-02-24T08:43:10;99701.66;;;4.14;73.85
75553;BME280;64136;53.118;17.996;2023-02-24T08:45:43;99704.35;;;4.16;73.37
75553;BME280;64136;53.118;17.996;2023-02-24T08:48:33;99703.73;;;4.08;72.30
75553;BME280;64136;53.118;17.996;2023-02-24T08:54:00;99698.12;;;3.98;72.22
75553;BME280;64136;53.118;17.996;2023-02-24T08:56:37;99699.26;;;3.99;72.48
75553;BME280;64136;53.118;17.996;2023-02-24T08:59:25;99694.95;;;3.98;71.52
